Alexandria, MN

12:41 PM CST on December 10, 2016 (GMT -0600)
Chandler | | Change Station

Elev 1424 ft 45.87 °N, 95.39 °W | Updated 48 minutes ago

Mostly Cloudy
Mostly Cloudy
0 °F
Feels Like -13 °F
N
7
Wind Variable Wind from South

Today
High -- | Low -- °F
--% Chance of Precip.
Yesterday
High -- | Low -- °F
Precip. -- in
Pressure 30.47 in
Visibility 10.0 miles
Clouds Few 1000 ft
Mostly Cloudy 7000 ft
Windchill -13 °F
Dew Point -5 °F
Humidity 79%
Rainfall 0.00 in
Snow Depth Not available.
7:52 AM 4:36 PM
Waxing Gibbous, 85% visible
METAR KAXN 101753Z AUTO 17006KT 10SM FEW010 BKN070 M18/M21 A3034 RMK AO2 SLP318 T11781206 11178 21217 58016 $
Pressure 30.47 in
Visibility 10.0 miles
Clouds Few 1000 ft
Mostly Cloudy 7000 ft
Windchill -13 °F
Dew Point -5 °F
Humidity 79%
Rainfall 0.00 in
Snow Depth Not available.
7:52 AM 4:36 PM
Waxing Gibbous, 85% visible
METAR KAXN 101753Z AUTO 17006KT 10SM FEW010 BKN070 M18/M21 A3034 RMK AO2 SLP318 T11781206 11178 21217 58016 $

10-Day Weather Forecast

Almanac

Astronomy

Dec. 10, 2016 Rise Set
Actual Time
Civil Twilight
Nautical Twilight
Astronomical Twilight
Moon
Length of Visible Light
Length of Day
Tomorrow will be .
, % of the Moon is Illuminated

Today's Extremes

State Highs State Lows

Community

WunderPhotos

Upload Photos

1,956,619 photos uploaded!

WunderBlog® & News

Nearby

Air Quality

  Air Quality AQ Index Pollutant
Not available.

Snow Depth

Station Depth Elevation

Earthquake Activity

City Distance Mag. Time & Date
Minimum magnitude displayed is 2.5.

Coastal Water Temperatures

Place Temperature

Stations

Nearby Weather Stations

Station Location Temp. Windchill Dew Point Humidity Wind Precip. Elev Updated Type
                   

Watches & Warnings

There are currently no watches in effect.